Time;durP1;ratioP1;P1;durP2;ratioP2;P2;SDS_P1;SDS_P2;PMS_P1;PMS_P2;Temp;Humidity;BMP_temperature;BMP_pressure;BME280_temperature;BME280_humidity;BME280_pressure;Samples;Min_cycle;Max_cycle;Signal;HPM_P1;HPM_P2
2021/07/04 00:06:37;;;;;;;10.88;7.35;;;19.60;99.90;;;;;;6630619;89;21123;-77
2021/07/04 00:16:38;;;;;;;11.80;7.18;;;19.70;99.90;;;;;;6626473;89;20215;-76
2021/07/04 00:26:38;;;;;;;11.40;7.90;;;19.40;99.90;;;;;;6614818;89;20219;-76
2021/07/04 00:36:39;;;;;;;13.75;8.23;;;19.40;99.90;;;;;;6617337;89;20218;-76
2021/07/04 00:46:39;;;;;;;11.73;7.93;;;19.20;99.90;;;;;;6613498;89;20177;-76
2021/07/04 00:56:40;;;;;;;9.60;7.72;;;19.20;99.90;;;;;;6612906;89;20225;-75
2021/07/04 01:06:41;;;;;;;10.77;7.85;;;19.10;99.90;;;;;;6613158;89;20209;-78
2021/07/04 01:16:43;;;;;;;11.80;8.05;;;19.10;99.90;;;;;;6618217;89;20194;-78
2021/07/04 01:26:43;;;;;;;11.60;8.15;;;19.00;99.90;;;;;;6630095;89;20228;-76
2021/07/04 01:36:44;;;;;;;11.75;8.82;;;19.00;99.90;;;;;;6624791;89;20738;-76
2021/07/04 01:46:45;;;;;;;12.02;8.25;;;18.80;99.90;;;;;;6623303;89;20192;-78
2021/07/04 01:56:45;;;;;;;9.60;7.47;;;18.80;99.90;;;;;;6631064;88;20242;-76
2021/07/04 02:06:46;;;;;;;13.27;7.77;;;18.80;99.90;;;;;;6631884;89;20210;-76
2021/07/04 02:16:46;;;;;;;9.93;7.70;;;18.60;99.90;;;;;;6631294;88;20603;-76
2021/07/04 02:26:47;;;;;;;9.13;7.15;;;18.60;99.90;;;;;;6630460;88;20710;-78
2021/07/04 02:36:47;;;;;;;9.43;6.90;;;18.60;99.90;;;;;;6630075;89;20339;-76
2021/07/04 02:46:48;;;;;;;7.45;5.95;;;18.70;99.90;;;;;;6632552;88;20216;-78
2021/07/04 02:56:49;;;;;;;11.30;6.40;;;18.60;99.90;;;;;;6630570;88;20214;-77
2021/07/04 03:06:49;;;;;;;7.72;5.72;;;18.60;99.90;;;;;;6630242;89;20507;-77
2021/07/04 03:16:50;;;;;;;7.03;5.50;;;18.60;99.90;;;;;;6633983;89;20202;-77
2021/07/04 03:26:50;;;;;;;6.68;5.25;;;18.50;99.90;;;;;;6629768;89;20200;-77
2021/07/04 03:36:51;;;;;;;7.82;5.65;;;18.50;99.90;;;;;;6635127;89;20743;-78
2021/07/04 03:46:51;;;;;;;9.02;5.60;;;18.50;99.90;;;;;;6636697;89;20189;-77
2021/07/04 03:56:52;;;;;;;9.15;5.70;;;18.50;99.90;;;;;;6633355;89;20198;-77
2021/07/04 04:06:52;;;;;;;8.93;5.68;;;18.70;99.90;;;;;;6632982;89;20885;-77
2021/07/04 04:16:53;;;;;;;7.37;5.47;;;18.70;99.90;;;;;;6628876;89;20350;-77
2021/07/04 04:26:53;;;;;;;6.53;5.40;;;18.60;99.90;;;;;;6634491;89;20242;-78
2021/07/04 04:36:54;;;;;;;6.78;5.32;;;18.80;99.90;;;;;;6633577;89;20250;-77
2021/07/04 04:46:55;;;;;;;8.45;5.15;;;18.80;99.90;;;;;;6632533;89;20181;-78
2021/07/04 04:56:55;;;;;;;8.80;5.75;;;18.70;99.90;;;;;;6632560;89;20234;-77
2021/07/04 05:06:56;;;;;;;7.12;5.90;;;18.80;99.90;;;;;;6633396;89;20207;-78
2021/07/04 05:16:56;;;;;;;8.98;6.18;;;18.90;99.90;;;;;;6634506;89;20188;-77
2021/07/04 05:26:57;;;;;;;10.00;6.00;;;19.00;99.90;;;;;;6633647;89;20613;-77
2021/07/04 05:36:58;;;;;;;9.90;5.50;;;19.10;99.90;;;;;;6632482;89;20640;-77
2021/07/04 05:46:58;;;;;;;10.15;6.10;;;19.30;99.90;;;;;;6632603;89;20247;-77
2021/07/04 05:56:59;;;;;;;10.43;6.37;;;19.20;99.90;;;;;;6631450;89;20219;-78
2021/07/04 06:06:59;;;;;;;9.93;6.55;;;19.30;99.90;;;;;;6632313;89;20705;-77
2021/07/04 06:17:00;;;;;;;10.43;6.15;;;19.60;99.90;;;;;;6632447;89;20203;-77
2021/07/04 06:27:01;;;;;;;10.48;5.53;;;20.50;99.90;;;;;;6633165;89;20216;-77
2021/07/04 06:37:01;;;;;;;9.55;5.10;;;21.50;99.90;;;;;;6631686;89;20196;-78
2021/07/04 06:47:02;;;;;;;7.28;5.20;;;22.50;99.90;;;;;;6632526;89;20301;-78
2021/07/04 07:07:22;;;;;;;6.32;4.50;;;23.00;99.90;;;;;;6633723;89;20220;-79
2021/07/04 07:17:25;;;;;;;6.17;4.50;;;24.10;99.90;;;;;;6629854;89;20254;-79
2021/07/04 07:27:25;;;;;;;8.63;4.90;;;25.60;99.90;;;;;;6633010;88;20212;-78
2021/07/04 07:37:27;;;;;;;7.25;4.40;;;24.50;99.90;;;;;;6636942;89;20701;-79
2021/07/04 07:47:28;;;;;;;5.95;4.45;;;24.70;99.90;;;;;;6635111;89;20331;-78
2021/07/04 07:57:28;;;;;;;8.20;5.18;;;23.50;99.90;;;;;;6633789;89;20255;-78
2021/07/04 08:07:29;;;;;;;5.53;4.10;;;22.80;99.90;;;;;;6633008;89;20192;-79
2021/07/04 08:17:29;;;;;;;6.20;3.87;;;24.70;99.90;;;;;;6632382;89;20983;-78
2021/07/04 08:27:30;;;;;;;5.87;4.50;;;26.90;99.90;;;;;;6632693;89;20655;-78
2021/07/04 08:37:30;;;;;;;6.45;3.90;;;28.10;99.90;;;;;;6637713;89;20323;-79
2021/07/04 08:47:31;;;;;;;5.28;4.10;;;27.80;99.90;;;;;;6633627;89;20200;-79
2021/07/04 08:57:32;;;;;;;4.57;3.92;;;28.90;99.90;;;;;;6634138;89;20326;-79
2021/07/04 09:17:38;;;;;;;5.37;4.22;;;29.40;99.00;;;;;;6632842;89;20328;-78
2021/07/04 09:27:40;;;;;;;;;;;28.60;99.90;;;;;;6623349;89;20182;-78
2021/07/04 09:37:43;;;;;;;6.00;4.12;;;27.20;99.90;;;;;;6611559;90;20064;-80
2021/07/04 09:47:51;;;;;;;6.15;4.25;;;26.10;99.90;;;;;;6613961;90;20190;-78
2021/07/04 09:57:56;;;;;;;5.72;3.25;;;24.30;99.90;;;;;;6611180;90;20209;-79
2021/07/04 10:07:56;;;;;;;6.65;4.62;;;23.30;99.90;;;;;;6610991;89;20301;-79
2021/07/04 10:17:57;;;;;;;5.22;3.30;;;22.10;99.90;;;;;;6612490;89;20773;-79
2021/07/04 10:27:59;;;;;;;10.05;4.85;;;21.90;99.90;;;;;;6610856;90;20185;-78
2021/07/04 10:38:14;;;;;;;6.25;2.92;;;20.60;99.90;;;;;;6607740;90;20659;-78
2021/07/04 10:48:24;;;;;;;5.18;2.70;;;20.10;99.90;;;;;;6610064;90;20201;-79
2021/07/04 10:58:25;;;;;;;6.28;2.90;;;19.80;99.90;;;;;;6609531;90;20705;-78
2021/07/04 11:08:31;;;;;;;3.67;2.13;;;19.70;99.90;;;;;;6606446;89;20190;-78
2021/07/04 11:18:41;;;;;;;7.37;2.92;;;19.70;99.90;;;;;;6610770;90;20974;-78
2021/07/04 11:28:47;;;;;;;4.70;2.12;;;19.70;99.90;;;;;;6609651;90;20177;-79
2021/07/04 11:38:51;;;;;;;4.12;2.33;;;19.80;99.90;;;;;;6612304;90;20190;-79
2021/07/04 11:48:57;;;;;;;3.87;2.40;;;19.50;99.90;;;;;;6613464;89;20190;-78
2021/07/04 11:59:10;;;;;;;4.82;2.60;;;19.40;99.90;;;;;;6610608;89;20339;-79
2021/07/04 12:09:10;;;;;;;5.57;3.03;;;19.70;99.90;;;;;;6613768;89;20376;-79
2021/07/04 12:19:24;;;;;;;5.40;2.90;;;20.40;99.90;;;;;;6612354;89;21045;-79
2021/07/04 12:29:25;;;;;;;4.50;2.80;;;20.80;99.90;;;;;;6612191;90;20227;-79
2021/07/04 12:39:32;;;;;;;5.10;2.53;;;21.60;99.90;;;;;;6613146;90;20209;-79
2021/07/04 12:49:33;;;;;;;4.57;2.95;;;21.60;99.90;;;;;;6615542;90;20252;-79
2021/07/04 12:59:34;;;;;;;4.05;2.95;;;21.30;99.90;;;;;;6613996;89;20686;-79
2021/07/04 13:09:38;;;;;;;5.03;2.80;;;21.60;99.90;;;;;;6615228;89;20617;-79
2021/07/04 13:19:39;;;;;;;2.87;2.20;;;21.30;99.90;;;;;;6616718;90;20189;-79
2021/07/04 13:29:41;;;;;;;2.37;1.10;;;20.50;99.90;;;;;;6615920;90;20326;-80
2021/07/04 13:39:59;;;;;;;1.83;1.10;;;18.90;99.90;;;;;;6615590;90;20652;-80
2021/07/04 13:50:00;;;;;;;3.50;1.20;;;17.40;99.90;;;;;;6619643;90;20210;-81
2021/07/04 14:00:00;;;;;;;2.53;1.03;;;16.90;99.90;;;;;;6622222;89;20198;-79
2021/07/04 14:10:02;;;;;;;2.97;0.90;;;16.30;99.90;;;;;;6611753;89;20559;-78
2021/07/04 14:20:05;;;;;;;2.20;0.60;;;16.20;99.90;;;;;;6609513;90;20197;-78
2021/07/04 14:30:08;;;;;;;1.92;0.50;;;16.30;99.90;;;;;;6608993;90;20190;-79
2021/07/04 14:40:10;;;;;;;1.50;0.60;;;16.30;99.90;;;;;;6608275;90;20219;-78
2021/07/04 14:50:11;;;;;;;3.25;1.02;;;16.60;99.90;;;;;;6606456;90;20207;-78
2021/07/04 15:00:14;;;;;;;2.30;0.77;;;16.90;99.90;;;;;;6605490;90;20331;-79
2021/07/04 15:20:18;;;;;;;1.23;0.50;;;17.00;99.90;;;;;;6641124;89;20219;-80
2021/07/04 15:30:18;;;;;;;1.60;0.47;;;17.10;99.90;;;;;;6637359;89;20227;-79
2021/07/04 15:40:21;;;;;;;2.30;0.70;;;17.30;99.90;;;;;;6636388;89;20658;-78
2021/07/04 15:50:22;;;;;;;2.45;0.70;;;17.30;99.90;;;;;;6633483;89;20210;-78
2021/07/04 16:00:22;;;;;;;2.93;1.30;;;17.20;99.90;;;;;;6638226;89;20203;-78
2021/07/04 16:10:23;;;;;;;2.55;1.10;;;17.00;99.90;;;;;;6637111;89;20651;-78
2021/07/04 16:20:24;;;;;;;2.67;1.20;;;17.00;99.90;;;;;;6637526;88;20180;-79
2021/07/04 16:30:25;;;;;;;3.20;0.90;;;17.00;99.90;;;;;;6650039;88;20200;-79
2021/07/04 16:40:26;;;;;;;4.03;0.98;;;17.20;99.90;;;;;;6632060;89;20272;-78
2021/07/04 16:50:28;;;;;;;2.03;1.17;;;17.30;99.90;;;;;;6635339;89;20236;-79
2021/07/04 17:00:31;;;;;;;3.60;1.12;;;17.50;99.90;;;;;;6635222;89;20589;-78
2021/07/04 17:10:32;;;;;;;2.33;1.02;;;18.00;99.90;;;;;;6635164;89;20207;-79
2021/07/04 17:20:33;;;;;;;1.70;0.90;;;18.10;99.90;;;;;;6643431;89;20204;-79
2021/07/04 17:30:35;;;;;;;2.33;1.00;;;18.40;99.90;;;;;;6653678;89;20500;-78
2021/07/04 17:40:35;;;;;;;3.53;1.02;;;20.70;99.90;;;;;;6634853;89;20192;-78
2021/07/04 17:50:37;;;;;;;2.53;1.12;;;20.50;99.90;;;;;;6647963;88;20273;-79
2021/07/04 18:00:38;;;;;;;3.92;0.90;;;19.70;99.90;;;;;;6633002;88;20224;-79
2021/07/04 18:10:39;;;;;;;1.60;1.00;;;20.80;99.90;;;;;;6633788;88;20214;-78
2021/07/04 18:20:40;;;;;;;1.40;0.90;;;19.40;99.90;;;;;;6633722;89;20196;-78
2021/07/04 18:30:41;;;;;;;2.40;0.90;;;19.90;99.90;;;;;;6632215;89;20315;-78
2021/07/04 18:40:42;;;;;;;2.77;1.10;;;21.00;99.90;;;;;;6631578;89;20730;-78
2021/07/04 18:50:42;;;;;;;2.08;1.00;;;20.10;99.90;;;;;;6634302;89;20542;-79
2021/07/04 19:00:43;;;;;;;1.75;0.90;;;18.70;99.90;;;;;;6624329;88;20640;-80
2021/07/04 19:10:46;;;;;;;3.00;1.00;;;18.00;99.90;;;;;;6621909;89;20354;-80
2021/07/04 19:20:50;;;;;;;2.78;1.15;;;17.60;99.90;;;;;;6622815;89;20216;-83
2021/07/04 19:30:52;;;;;;;2.03;1.20;;;17.40;99.90;;;;;;6630840;89;21179;-83
2021/07/04 19:40:52;;;;;;;5.15;1.42;;;17.20;99.90;;;;;;6629683;89;20200;-80
2021/07/04 19:50:53;;;;;;;3.28;1.90;;;17.20;99.90;;;;;;6623350;89;20266;-80
2021/07/04 20:00:55;;;;;;;2.77;1.47;;;17.00;99.90;;;;;;6619607;89;20254;-80
2021/07/04 20:10:56;;;;;;;3.03;1.77;;;16.90;99.90;;;;;;6621577;89;20228;-80
2021/07/04 20:20:58;;;;;;;3.80;1.75;;;16.80;99.90;;;;;;6628823;89;20206;-78
2021/07/04 20:30:59;;;;;;;3.30;2.42;;;16.70;99.90;;;;;;6625841;88;20216;-77
2021/07/04 20:41:01;;;;;;;3.62;3.15;;;16.50;99.90;;;;;;6622220;89;20203;-80
2021/07/04 20:51:02;;;;;;;3.53;2.05;;;16.50;99.90;;;;;;6622219;89;20173;-79
2021/07/04 21:01:02;;;;;;;3.30;2.20;;;16.40;99.90;;;;;;6623408;89;20239;-80
2021/07/04 21:11:05;;;;;;;5.15;2.25;;;16.40;99.90;;;;;;6642481;89;20248;-79
2021/07/04 21:21:08;;;;;;;4.60;2.15;;;16.50;99.90;;;;;;6644212;88;20343;-79
2021/07/04 21:31:50;;;;;;;3.08;2.28;;;16.50;99.90;;;;;;6696897;78;20230;-82
2021/07/04 21:41:50;;;;;;;5.35;2.50;;;16.40;99.90;;;;;;6626313;88;20184;-82
2021/07/04 21:51:51;;;;;;;4.82;2.90;;;16.20;99.90;;;;;;6626317;88;20174;-82
2021/07/04 22:01:52;;;;;;;3.80;2.47;;;16.10;99.90;;;;;;6610993;88;20750;-83
2021/07/04 22:11:53;;;;;;;5.80;2.60;;;16.00;99.90;;;;;;6623940;88;20181;-82
2021/07/04 22:21:53;;;;;;;6.95;3.78;;;16.10;99.90;;;;;;6627045;88;20994;-82
2021/07/04 22:31:54;;;;;;;8.82;4.60;;;16.10;99.90;;;;;;6710333;88;20795;-82
2021/07/04 22:41:55;;;;;;;8.35;5.43;;;16.10;99.90;;;;;;6730301;88;20195;-83
2021/07/04 22:51:57;;;;;;;7.13;5.00;;;16.10;99.90;;;;;;6716638;88;20208;-82
2021/07/04 23:01:58;;;;;;;7.68;5.07;;;16.00;99.90;;;;;;6672568;88;20501;-83
2021/07/04 23:11:59;;;;;;;6.82;4.30;;;15.90;99.90;;;;;;6661223;89;20193;-83
2021/07/04 23:21:59;;;;;;;7.10;4.05;;;15.70;99.90;;;;;;6661106;88;20179;-83
2021/07/04 23:32:00;;;;;;;5.60;4.05;;;15.70;99.90;;;;;;6697651;88;20174;-80
2021/07/04 23:42:00;;;;;;;6.20;3.87;;;15.60;99.90;;;;;;6697801;88;20203;-80
2021/07/04 23:52:01;;;;;;;6.27;3.63;;;15.60;99.90;;;;;;6697788;88;20188;-82
